Buzet ULM

EBBZ · Hainaut, Wallonia, 比利时

罗盘
风向 的 风向 020° Buzet ULM 15/33
风: 4 kt, 2 beaufort

3 kt

3 kt
改变
0 ft 1.000 2.000 3.000 4.000 5.000
CAVOK
METAR EBCI 252020Z 02004KT CAVOK 22/14 Q1013 NOSIG

METAR Buzet ULM - EBBZ

Buzet ULM是,比利时中的小机场。 该机场位于纬度50,54247和经度4,38257。 该机场有一条跑道: 15/33. 本场的ICAO机场代码为EBBZ。 机场在Bruxelles FIR中。

该航空气象观测是针对布鲁塞尔南部-沙勒罗瓦机场在2024年6月25日 22:20, 当地时间进行的。

机场观察

风向为020°,速度为4 kt。

天气为CAVOK。这意味着在5.000 ft或MSA(最低安全高度)以下(以较高者为准)以下没有云。这也意味着没有观测到积雨云或高耸的积云,可见度为10 km 或者更多或更高。此外,不会有雾,降雨或其他重要天气。

温度和风寒是22 °C。 露点为14 °C,相对湿度为61%。 海平面上的气压为1013 hPa (QNH)。

白天

今天,太阳从05:31升起,在21:58降落。 这适用于Buzet ULM,世界夏令时可能有所不同。 当地时间与世界标准时间之间的时差为+2 小时。 夏令时目前正在进行中。

公司介绍

我们没有关于这个机场的公司信息。

体会

到Vliegles.nl去找飞行课程,跳伞和其他飞行体验。 浏览页面,了解Buzet ULM附近所有可用的活动。 你也可以使用搜索功能来寻找你所在地附近的特定飞行课程、跳伞或其他飞行体验。

跑道

Id 标题 侧风 逆风 侧风 %
15/33 153°-333° 3 kt 3 kt 73 %

逆风成分最大的方向会被突出显示,并用于横风计算。 这并不一定意味着这个方向在使用。

温度 & 天气

温度 22 °C
露点 14 °C
相对湿度 61%
Kp-index 2 (0-9)

白天

日出
05:31 (6:35)
中午
13:44
日落
21:57

小工具

你想在你的网站上有一个关于Buzet ULM的当前航空天气(METAR)的小部件吗?

显示HTML代码
报告变更